createdAt,value
2022-09-01T00:08:59.270Z,1021.22
2022-09-01T00:24:32.138Z,1021.29
2022-09-01T00:39:33.311Z,1021.23
2022-09-01T00:54:34.001Z,1021.14
2022-09-01T01:09:36.213Z,1021.12
2022-09-01T01:24:43.358Z,1021.05
2022-09-01T01:39:45.704Z,1021.02
2022-09-01T01:54:47.996Z,1021.00
2022-09-01T02:09:48.603Z,1021.02
2022-09-01T02:24:48.754Z,1021.03
2022-09-01T02:39:49.659Z,1021.06
2022-09-01T02:54:52.855Z,1020.94
2022-09-01T03:09:53.786Z,1020.82
2022-09-01T03:24:55.280Z,1020.82
2022-09-01T03:39:56.754Z,1020.88
2022-09-01T03:55:00.468Z,1020.94
2022-09-01T04:10:02.094Z,1020.91
2022-09-01T04:25:02.999Z,1020.87
2022-09-01T04:40:04.547Z,1020.86
2022-09-01T04:55:05.269Z,1020.96
2022-09-01T05:10:06.888Z,1020.83
2022-09-01T05:25:07.619Z,1020.86
2022-09-01T05:40:08.755Z,1020.97
2022-09-01T05:55:12.552Z,1021.00
2022-09-01T06:10:13.394Z,1021.03
2022-09-01T06:25:13.459Z,1021.00
2022-09-01T06:40:15.478Z,1021.12
2022-09-01T06:55:18.140Z,1021.27
2022-09-01T07:25:34.943Z,1021.33
2022-09-01T07:42:59.097Z,1021.23
2022-09-01T07:55:38.367Z,1021.43
2022-09-01T08:10:39.188Z,1021.51
2022-09-01T08:25:40.574Z,1021.45
2022-09-01T08:40:42.533Z,1021.37
2022-09-01T08:55:43.926Z,1021.41
2022-09-01T09:10:44.844Z,1021.30
2022-09-01T09:25:45.646Z,1021.24
2022-09-01T09:41:10.540Z,1021.27
2022-09-01T09:55:56.069Z,1021.07
2022-09-01T10:10:57.908Z,1021.07
2022-09-01T10:25:59.563Z,1021.11
2022-09-01T10:41:00.890Z,1020.96
2022-09-01T10:56:04.252Z,1020.97
2022-09-01T11:11:07.990Z,1020.97
2022-09-01T11:26:19.392Z,1020.94
2022-09-01T11:41:17.279Z,1021.01
2022-09-01T11:56:18.179Z,1020.90
2022-09-01T12:11:18.715Z,1020.84
2022-09-01T12:26:19.807Z,1020.77
2022-09-01T12:56:21.875Z,1020.66
2022-09-01T13:11:22.132Z,1020.44
2022-09-01T13:26:22.409Z,1020.39
2022-09-01T13:41:22.736Z,1020.34
2022-09-01T13:56:24.712Z,1020.29
2022-09-01T14:11:26.061Z,1020.22
2022-09-01T14:26:28.091Z,1020.09
2022-09-01T14:41:30.513Z,1019.98
2022-09-01T14:56:30.651Z,1019.92
2022-09-01T15:11:32.013Z,1019.85
2022-09-01T15:26:36.068Z,1019.67
2022-09-01T15:41:36.369Z,1019.65
2022-09-01T15:56:37.233Z,1019.63
2022-09-01T16:11:37.600Z,1019.65
2022-09-01T16:26:38.873Z,1019.72
2022-09-01T16:41:39.999Z,1019.63
2022-09-01T16:56:41.373Z,1019.55
2022-09-01T17:11:43.242Z,1019.58
2022-09-01T17:26:46.907Z,1019.63
2022-09-01T17:41:49.870Z,1019.81
2022-09-01T17:56:51.193Z,1019.82
2022-09-01T18:11:52.547Z,1019.81
2022-09-01T18:26:55.212Z,1019.89
2022-09-01T18:41:56.714Z,1020.00
2022-09-01T18:56:59.142Z,1020.10
2022-09-01T19:12:01.817Z,1020.16
2022-09-01T19:27:01.951Z,1020.20
2022-09-01T19:42:02.817Z,1020.19
2022-09-01T19:57:04.384Z,1020.28
2022-09-01T20:12:07.305Z,1020.27
2022-09-01T20:27:08.707Z,1020.24
2022-09-01T20:42:09.745Z,1020.31
2022-09-01T20:57:11.280Z,1020.38
2022-09-01T21:12:12.335Z,1020.47
2022-09-01T21:27:13.553Z,1020.35
2022-09-01T21:42:14.253Z,1020.44
2022-09-01T21:57:14.863Z,1020.34
2022-09-01T22:12:16.233Z,1020.37
2022-09-01T22:27:17.655Z,1020.29
2022-09-01T22:42:18.430Z,1020.30
2022-09-01T22:57:21.100Z,1020.30
2022-09-01T23:12:22.766Z,1020.23
2022-09-01T23:27:25.352Z,1020.15
2022-09-01T23:42:27.101Z,1020.14
2022-09-01T23:57:27.499Z,1020.00
